sensor_id;sensor_type;location;lat;lon;timestamp;P1;durP1;ratioP1;P2;durP2;ratioP2
33268;SDS011;19640;50.944;5.260;2022-09-09T00:01:51;2.25;;;0.57;;
33268;SDS011;19640;50.944;5.260;2022-09-09T00:04:41;3.15;;;0.60;;
33268;SDS011;19640;50.944;5.260;2022-09-09T00:12:53;2.60;;;0.63;;
33268;SDS011;19640;50.944;5.260;2022-09-09T00:15:35;1.50;;;0.70;;
33268;SDS011;19640;50.944;5.260;2022-09-09T00:21:01;5.95;;;0.65;;
33268;SDS011;19640;50.944;5.260;2022-09-09T00:23:35;2.25;;;0.55;;
33268;SDS011;19640;50.944;5.260;2022-09-09T00:26:14;2.67;;;0.60;;
33268;SDS011;19640;50.944;5.260;2022-09-09T00:31:38;1.00;;;0.52;;
33268;SDS011;19640;50.944;5.260;2022-09-09T00:34:15;2.97;;;0.65;;
33268;SDS011;19640;50.944;5.260;2022-09-09T00:36:45;0.50;;;0.40;;
33268;SDS011;19640;50.944;5.260;2022-09-09T00:39:34;3.08;;;0.70;;
33268;SDS011;19640;50.944;5.260;2022-09-09T00:42:08;5.20;;;0.60;;
33268;SDS011;19640;50.944;5.260;2022-09-09T00:44:51;1.70;;;0.50;;
33268;SDS011;19640;50.944;5.260;2022-09-09T00:50:05;1.05;;;0.50;;
33268;SDS011;19640;50.944;5.260;2022-09-09T00:52:51;2.90;;;0.60;;
33268;SDS011;19640;50.944;5.260;2022-09-09T00:55:48;2.20;;;0.28;;
33268;SDS011;19640;50.944;5.260;2022-09-09T00:58:25;1.67;;;0.38;;
33268;SDS011;19640;50.944;5.260;2022-09-09T01:00:54;2.45;;;0.43;;
33268;SDS011;19640;50.944;5.260;2022-09-09T01:03:37;4.47;;;0.52;;
33268;SDS011;19640;50.944;5.260;2022-09-09T01:06:15;1.10;;;0.40;;
33268;SDS011;19640;50.944;5.260;2022-09-09T01:16:50;1.25;;;0.10;;
33268;SDS011;19640;50.944;5.260;2022-09-09T01:19:27;0.50;;;0.20;;
33268;SDS011;19640;50.944;5.260;2022-09-09T01:22:11;11.95;;;0.40;;
33268;SDS011;19640;50.944;5.260;2022-09-09T01:27:53;1.67;;;0.50;;
33268;SDS011;19640;50.944;5.260;2022-09-09T01:30:25;2.38;;;0.57;;
33268;SDS011;19640;50.944;5.260;2022-09-09T01:32:56;3.35;;;0.50;;
33268;SDS011;19640;50.944;5.260;2022-09-09T01:37:56;1.00;;;0.70;;
33268;SDS011;19640;50.944;5.260;2022-09-09T01:40:22;2.72;;;0.82;;
33268;SDS011;19640;50.944;5.260;2022-09-09T01:42:48;1.90;;;0.60;;
33268;SDS011;19640;50.944;5.260;2022-09-09T01:45:14;4.78;;;0.65;;
33268;SDS011;19640;50.944;5.260;2022-09-09T01:47:40;7.35;;;0.80;;
33268;SDS011;19640;50.944;5.260;2022-09-09T01:50:07;3.92;;;0.70;;
33268;SDS011;19640;50.944;5.260;2022-09-09T01:52:36;1.40;;;0.85;;
33268;SDS011;19640;50.944;5.260;2022-09-09T01:55:02;5.78;;;1.30;;
33268;SDS011;19640;50.944;5.260;2022-09-09T02:00:42;4.85;;;1.00;;
33268;SDS011;19640;50.944;5.260;2022-09-09T02:03:23;7.30;;;0.93;;
33268;SDS011;19640;50.944;5.260;2022-09-09T02:05:56;6.60;;;1.10;;
33268;SDS011;19640;50.944;5.260;2022-09-09T02:08:26;7.47;;;1.92;;
33268;SDS011;19640;50.944;5.260;2022-09-09T02:11:07;5.38;;;1.20;;
33268;SDS011;19640;50.944;5.260;2022-09-09T02:13:40;4.53;;;1.00;;
33268;SDS011;19640;50.944;5.260;2022-09-09T02:18:46;5.68;;;1.65;;
33268;SDS011;19640;50.944;5.260;2022-09-09T02:21:16;9.50;;;1.77;;
33268;SDS011;19640;50.944;5.260;2022-09-09T02:23:42;7.10;;;1.33;;
33268;SDS011;19640;50.944;5.260;2022-09-09T02:26:12;8.50;;;1.55;;
33268;SDS011;19640;50.944;5.260;2022-09-09T02:28:44;3.10;;;1.00;;
33268;SDS011;19640;50.944;5.260;2022-09-09T02:31:10;6.22;;;1.48;;
33268;SDS011;19640;50.944;5.260;2022-09-09T02:33:38;5.10;;;1.00;;
33268;SDS011;19640;50.944;5.260;2022-09-09T02:36:08;4.83;;;1.50;;
33268;SDS011;19640;50.944;5.260;2022-09-09T02:38:38;5.78;;;1.20;;
33268;SDS011;19640;50.944;5.260;2022-09-09T02:41:22;4.72;;;1.77;;
33268;SDS011;19640;50.944;5.260;2022-09-09T02:43:52;9.38;;;1.55;;
33268;SDS011;19640;50.944;5.260;2022-09-09T02:49:01;6.25;;;1.20;;
33268;SDS011;19640;50.944;5.260;2022-09-09T02:54:10;11.68;;;3.05;;
33268;SDS011;19640;50.944;5.260;2022-09-09T02:56:46;3.60;;;1.30;;
33268;SDS011;19640;50.944;5.260;2022-09-09T02:59:16;3.58;;;1.25;;
33268;SDS011;19640;50.944;5.260;2022-09-09T03:01:43;5.25;;;1.25;;
33268;SDS011;19640;50.944;5.260;2022-09-09T03:04:09;7.28;;;1.42;;
33268;SDS011;19640;50.944;5.260;2022-09-09T03:06:34;6.15;;;1.40;;
33268;SDS011;19640;50.944;5.260;2022-09-09T03:09:00;4.57;;;1.20;;
33268;SDS011;19640;50.944;5.260;2022-09-09T03:11:27;16.27;;;1.83;;
33268;SDS011;19640;50.944;5.260;2022-09-09T03:13:53;9.18;;;1.52;;
33268;SDS011;19640;50.944;5.260;2022-09-09T03:16:21;7.32;;;1.10;;
33268;SDS011;19640;50.944;5.260;2022-09-09T03:18:47;4.38;;;1.25;;
33268;SDS011;19640;50.944;5.260;2022-09-09T03:21:13;5.15;;;1.33;;
33268;SDS011;19640;50.944;5.260;2022-09-09T03:23:39;5.70;;;1.40;;
33268;SDS011;19640;50.944;5.260;2022-09-09T03:26:05;6.88;;;1.60;;
33268;SDS011;19640;50.944;5.260;2022-09-09T03:28:30;4.60;;;1.35;;
33268;SDS011;19640;50.944;5.260;2022-09-09T03:31:00;8.02;;;2.05;;
33268;SDS011;19640;50.944;5.260;2022-09-09T03:33:26;3.22;;;1.10;;
33268;SDS011;19640;50.944;5.260;2022-09-09T03:35:53;6.13;;;1.45;;
33268;SDS011;19640;50.944;5.260;2022-09-09T03:38:21;5.90;;;1.63;;
33268;SDS011;19640;50.944;5.260;2022-09-09T03:40:54;4.50;;;1.40;;
33268;SDS011;19640;50.944;5.260;2022-09-09T03:43:24;7.88;;;1.88;;
33268;SDS011;19640;50.944;5.260;2022-09-09T03:45:50;6.95;;;1.40;;
33268;SDS011;19640;50.944;5.260;2022-09-09T03:48:17;5.38;;;1.20;;
33268;SDS011;19640;50.944;5.260;2022-09-09T03:50:46;6.30;;;1.20;;
33268;SDS011;19640;50.944;5.260;2022-09-09T03:53:13;5.75;;;1.40;;
33268;SDS011;19640;50.944;5.260;2022-09-09T03:55:44;6.68;;;1.20;;
33268;SDS011;19640;50.944;5.260;2022-09-09T03:58:14;6.70;;;1.20;;
33268;SDS011;19640;50.944;5.260;2022-09-09T04:00:41;6.63;;;1.30;;
33268;SDS011;19640;50.944;5.260;2022-09-09T04:03:11;5.13;;;1.05;;
33268;SDS011;19640;50.944;5.260;2022-09-09T04:05:38;6.93;;;1.70;;
33268;SDS011;19640;50.944;5.260;2022-09-09T04:08:07;7.43;;;1.35;;
33268;SDS011;19640;50.944;5.260;2022-09-09T04:10:33;5.57;;;1.30;;
33268;SDS011;19640;50.944;5.260;2022-09-09T04:13:01;3.80;;;1.20;;
33268;SDS011;19640;50.944;5.260;2022-09-09T04:15:27;6.28;;;1.17;;
33268;SDS011;19640;50.944;5.260;2022-09-09T04:17:53;8.00;;;1.70;;
33268;SDS011;19640;50.944;5.260;2022-09-09T04:20:18;6.55;;;1.40;;
33268;SDS011;19640;50.944;5.260;2022-09-09T04:22:44;10.23;;;1.60;;
33268;SDS011;19640;50.944;5.260;2022-09-09T04:25:10;7.47;;;1.42;;
33268;SDS011;19640;50.944;5.260;2022-09-09T04:27:35;7.85;;;1.35;;
33268;SDS011;19640;50.944;5.260;2022-09-09T04:30:01;6.38;;;1.40;;
33268;SDS011;19640;50.944;5.260;2022-09-09T04:32:27;8.30;;;1.30;;
33268;SDS011;19640;50.944;5.260;2022-09-09T04:34:52;3.65;;;1.08;;
33268;SDS011;19640;50.944;5.260;2022-09-09T04:37:18;9.02;;;1.23;;
33268;SDS011;19640;50.944;5.260;2022-09-09T04:39:44;4.35;;;1.25;;
33268;SDS011;19640;50.944;5.260;2022-09-09T04:42:10;4.78;;;1.38;;
33268;SDS011;19640;50.944;5.260;2022-09-09T04:44:37;4.10;;;1.30;;
33268;SDS011;19640;50.944;5.260;2022-09-09T04:47:04;7.70;;;1.30;;
33268;SDS011;19640;50.944;5.260;2022-09-09T04:49:30;6.40;;;1.85;;
33268;SDS011;19640;50.944;5.260;2022-09-09T04:51:56;7.32;;;2.00;;
33268;SDS011;19640;50.944;5.260;2022-09-09T04:54:22;5.43;;;1.40;;
33268;SDS011;19640;50.944;5.260;2022-09-09T04:56:50;11.88;;;1.92;;
33268;SDS011;19640;50.944;5.260;2022-09-09T04:59:16;7.43;;;1.80;;
33268;SDS011;19640;50.944;5.260;2022-09-09T05:01:41;7.03;;;1.45;;
33268;SDS011;19640;50.944;5.260;2022-09-09T05:04:07;4.43;;;1.48;;
33268;SDS011;19640;50.944;5.260;2022-09-09T05:06:34;7.60;;;1.50;;
33268;SDS011;19640;50.944;5.260;2022-09-09T05:09:01;7.75;;;1.80;;
33268;SDS011;19640;50.944;5.260;2022-09-09T05:11:27;8.35;;;1.42;;
33268;SDS011;19640;50.944;5.260;2022-09-09T05:13:55;6.43;;;1.55;;
33268;SDS011;19640;50.944;5.260;2022-09-09T05:16:23;9.60;;;1.85;;
33268;SDS011;19640;50.944;5.260;2022-09-09T05:18:49;11.98;;;1.73;;
33268;SDS011;19640;50.944;5.260;2022-09-09T05:21:19;9.45;;;1.55;;
33268;SDS011;19640;50.944;5.260;2022-09-09T05:23:46;7.90;;;1.55;;
33268;SDS011;19640;50.944;5.260;2022-09-09T05:26:13;7.30;;;1.50;;
33268;SDS011;19640;50.944;5.260;2022-09-09T05:28:43;7.80;;;1.75;;
33268;SDS011;19640;50.944;5.260;2022-09-09T05:31:10;6.43;;;1.67;;
33268;SDS011;19640;50.944;5.260;2022-09-09T05:33:38;8.63;;;2.22;;
33268;SDS011;19640;50.944;5.260;2022-09-09T05:36:09;12.40;;;2.17;;
33268;SDS011;19640;50.944;5.260;2022-09-09T05:38:38;9.80;;;2.13;;
33268;SDS011;19640;50.944;5.260;2022-09-09T05:41:04;6.30;;;1.63;;
33268;SDS011;19640;50.944;5.260;2022-09-09T05:43:30;9.25;;;1.63;;
33268;SDS011;19640;50.944;5.260;2022-09-09T05:46:05;13.85;;;2.00;;
33268;SDS011;19640;50.944;5.260;2022-09-09T05:48:34;6.90;;;1.40;;
33268;SDS011;19640;50.944;5.260;2022-09-09T05:51:02;8.00;;;2.20;;
33268;SDS011;19640;50.944;5.260;2022-09-09T05:53:29;8.77;;;1.95;;
33268;SDS011;19640;50.944;5.260;2022-09-09T05:56:09;7.20;;;1.63;;
33268;SDS011;19640;50.944;5.260;2022-09-09T05:58:37;8.63;;;1.90;;
33268;SDS011;19640;50.944;5.260;2022-09-09T06:01:08;7.47;;;1.75;;
33268;SDS011;19640;50.944;5.260;2022-09-09T06:03:35;4.38;;;1.30;;
33268;SDS011;19640;50.944;5.260;2022-09-09T06:06:06;7.55;;;1.58;;
33268;SDS011;19640;50.944;5.260;2022-09-09T06:08:38;6.93;;;1.98;;
33268;SDS011;19640;50.944;5.260;2022-09-09T06:13:32;3.65;;;1.60;;
33268;SDS011;19640;50.944;5.260;2022-09-09T06:15:58;6.75;;;1.45;;
33268;SDS011;19640;50.944;5.260;2022-09-09T06:18:25;6.05;;;1.38;;
33268;SDS011;19640;50.944;5.260;2022-09-09T06:20:57;6.65;;;1.65;;
33268;SDS011;19640;50.944;5.260;2022-09-09T06:23:31;7.40;;;1.55;;
33268;SDS011;19640;50.944;5.260;2022-09-09T06:26:07;7.38;;;1.40;;
33268;SDS011;19640;50.944;5.260;2022-09-09T06:28:35;5.55;;;1.48;;
33268;SDS011;19640;50.944;5.260;2022-09-09T06:31:02;6.93;;;1.90;;
33268;SDS011;19640;50.944;5.260;2022-09-09T06:33:34;6.38;;;1.60;;
33268;SDS011;19640;50.944;5.260;2022-09-09T06:36:05;8.10;;;1.20;;
33268;SDS011;19640;50.944;5.260;2022-09-09T06:38:32;8.63;;;1.20;;
33268;SDS011;19640;50.944;5.260;2022-09-09T06:40:58;7.85;;;1.63;;
33268;SDS011;19640;50.944;5.260;2022-09-09T06:43:25;5.00;;;1.30;;
33268;SDS011;19640;50.944;5.260;2022-09-09T06:48:19;9.82;;;1.20;;
33268;SDS011;19640;50.944;5.260;2022-09-09T06:50:45;9.68;;;1.52;;
33268;SDS011;19640;50.944;5.260;2022-09-09T06:53:11;11.07;;;1.63;;
33268;SDS011;19640;50.944;5.260;2022-09-09T06:55:37;4.28;;;1.17;;
33268;SDS011;19640;50.944;5.260;2022-09-09T06:58:07;5.85;;;1.10;;
33268;SDS011;19640;50.944;5.260;2022-09-09T07:00:33;6.30;;;1.10;;
33268;SDS011;19640;50.944;5.260;2022-09-09T07:02:59;11.88;;;1.50;;
33268;SDS011;19640;50.944;5.260;2022-09-09T07:05:24;6.32;;;1.10;;
33268;SDS011;19640;50.944;5.260;2022-09-09T07:07:51;5.25;;;1.35;;
33268;SDS011;19640;50.944;5.260;2022-09-09T07:10:17;8.40;;;1.33;;
33268;SDS011;19640;50.944;5.260;2022-09-09T07:12:43;7.43;;;1.33;;
33268;SDS011;19640;50.944;5.260;2022-09-09T07:15:09;6.78;;;1.30;;
33268;SDS011;19640;50.944;5.260;2022-09-09T07:17:34;8.75;;;1.60;;
33268;SDS011;19640;50.944;5.260;2022-09-09T07:20:00;6.82;;;1.20;;
33268;SDS011;19640;50.944;5.260;2022-09-09T07:22:28;4.20;;;1.13;;
33268;SDS011;19640;50.944;5.260;2022-09-09T07:24:54;5.15;;;0.90;;
33268;SDS011;19640;50.944;5.260;2022-09-09T07:27:20;7.28;;;1.38;;
33268;SDS011;19640;50.944;5.260;2022-09-09T07:29:46;5.80;;;1.40;;
33268;SDS011;19640;50.944;5.260;2022-09-09T07:32:11;7.10;;;1.67;;
33268;SDS011;19640;50.944;5.260;2022-09-09T07:34:37;7.50;;;1.23;;
33268;SDS011;19640;50.944;5.260;2022-09-09T07:37:03;3.13;;;0.70;;
33268;SDS011;19640;50.944;5.260;2022-09-09T07:39:28;5.95;;;1.30;;
33268;SDS011;19640;50.944;5.260;2022-09-09T07:41:54;6.13;;;1.00;;
33268;SDS011;19640;50.944;5.260;2022-09-09T07:44:21;5.38;;;0.90;;
33268;SDS011;19640;50.944;5.260;2022-09-09T07:46:49;5.32;;;0.90;;
33268;SDS011;19640;50.944;5.260;2022-09-09T07:49:15;5.63;;;1.17;;
33268;SDS011;19640;50.944;5.260;2022-09-09T07:51:42;2.53;;;1.08;;
33268;SDS011;19640;50.944;5.260;2022-09-09T07:54:10;8.75;;;1.38;;
33268;SDS011;19640;50.944;5.260;2022-09-09T07:56:38;11.10;;;1.38;;
33268;SDS011;19640;50.944;5.260;2022-09-09T07:59:04;5.53;;;1.30;;
33268;SDS011;19640;50.944;5.260;2022-09-09T08:03:59;3.88;;;1.00;;
33268;SDS011;19640;50.944;5.260;2022-09-09T08:06:34;6.93;;;1.15;;
33268;SDS011;19640;50.944;5.260;2022-09-09T08:09:03;6.45;;;1.02;;
33268;SDS011;19640;50.944;5.260;2022-09-09T08:11:29;7.63;;;1.60;;
33268;SDS011;19640;50.944;5.260;2022-09-09T08:13:55;6.78;;;1.80;;
33268;SDS011;19640;50.944;5.260;2022-09-09T08:16:25;6.45;;;1.20;;
33268;SDS011;19640;50.944;5.260;2022-09-09T08:18:52;7.40;;;1.25;;
33268;SDS011;19640;50.944;5.260;2022-09-09T08:21:25;5.75;;;1.20;;
33268;SDS011;19640;50.944;5.260;2022-09-09T08:23:53;6.65;;;1.05;;
33268;SDS011;19640;50.944;5.260;2022-09-09T08:26:21;3.65;;;1.00;;
33268;SDS011;19640;50.944;5.260;2022-09-09T08:28:50;6.63;;;1.80;;
33268;SDS011;19640;50.944;5.260;2022-09-09T08:31:22;4.75;;;0.80;;
33268;SDS011;19640;50.944;5.260;2022-09-09T08:36:17;3.13;;;0.88;;
33268;SDS011;19640;50.944;5.260;2022-09-09T08:38:47;5.22;;;1.25;;
33268;SDS011;19640;50.944;5.260;2022-09-09T08:44:10;5.00;;;1.20;;
33268;SDS011;19640;50.944;5.260;2022-09-09T08:47:02;7.20;;;1.27;;
33268;SDS011;19640;50.944;5.260;2022-09-09T08:52:04;4.90;;;1.10;;
33268;SDS011;19640;50.944;5.260;2022-09-09T08:54:38;6.72;;;1.13;;
33268;SDS011;19640;50.944;5.260;2022-09-09T08:57:05;7.47;;;1.13;;
33268;SDS011;19640;50.944;5.260;2022-09-09T08:59:46;4.55;;;0.90;;
33268;SDS011;19640;50.944;5.260;2022-09-09T09:05:04;4.80;;;0.88;;
33268;SDS011;19640;50.944;5.260;2022-09-09T09:10:21;5.05;;;0.98;;
33268;SDS011;19640;50.944;5.260;2022-09-09T09:13:01;4.35;;;1.05;;
33268;SDS011;19640;50.944;5.260;2022-09-09T09:15:33;4.72;;;1.05;;
33268;SDS011;19640;50.944;5.260;2022-09-09T09:18:03;1.33;;;0.63;;
33268;SDS011;19640;50.944;5.260;2022-09-09T09:20:44;16.25;;;2.20;;
33268;SDS011;19640;50.944;5.260;2022-09-09T09:23:21;6.47;;;0.90;;
33268;SDS011;19640;50.944;5.260;2022-09-09T09:25:50;3.85;;;0.93;;
33268;SDS011;19640;50.944;5.260;2022-09-09T09:28:23;6.57;;;0.98;;
33268;SDS011;19640;50.944;5.260;2022-09-09T09:33:28;4.22;;;1.23;;
33268;SDS011;19640;50.944;5.260;2022-09-09T09:36:14;2.05;;;0.90;;
33268;SDS011;19640;50.944;5.260;2022-09-09T09:38:51;3.55;;;0.73;;
33268;SDS011;19640;50.944;5.260;2022-09-09T09:44:02;4.97;;;0.70;;
33268;SDS011;19640;50.944;5.260;2022-09-09T09:46:29;2.83;;;0.80;;
33268;SDS011;19640;50.944;5.260;2022-09-09T09:48:57;6.20;;;1.15;;
33268;SDS011;19640;50.944;5.260;2022-09-09T09:51:23;3.28;;;0.80;;
33268;SDS011;19640;50.944;5.260;2022-09-09T09:53:50;4.78;;;1.15;;
33268;SDS011;19640;50.944;5.260;2022-09-09T09:56:25;5.50;;;0.82;;
33268;SDS011;19640;50.944;5.260;2022-09-09T09:58:53;5.35;;;0.88;;
33268;SDS011;19640;50.944;5.260;2022-09-09T10:01:20;3.80;;;0.85;;
33268;SDS011;19640;50.944;5.260;2022-09-09T10:03:51;4.93;;;1.00;;
33268;SDS011;19640;50.944;5.260;2022-09-09T10:06:28;6.13;;;1.40;;
33268;SDS011;19640;50.944;5.260;2022-09-09T10:09:03;5.78;;;1.23;;
33268;SDS011;19640;50.944;5.260;2022-09-09T10:14:21;5.85;;;1.40;;
33268;SDS011;19640;50.944;5.260;2022-09-09T10:19:36;5.20;;;1.50;;
33268;SDS011;19640;50.944;5.260;2022-09-09T10:33:23;7.47;;;1.42;;
33268;SDS011;19640;50.944;5.260;2022-09-09T10:57:44;6.97;;;1.48;;
33268;SDS011;19640;50.944;5.260;2022-09-09T11:00:20;3.42;;;1.10;;
33268;SDS011;19640;50.944;5.260;2022-09-09T11:02:58;5.22;;;1.35;;
33268;SDS011;19640;50.944;5.260;2022-09-09T11:05:28;5.47;;;1.70;;
33268;SDS011;19640;50.944;5.260;2022-09-09T11:13:44;4.47;;;1.40;;
33268;SDS011;19640;50.944;5.260;2022-09-09T11:19:04;3.60;;;1.30;;
33268;SDS011;19640;50.944;5.260;2022-09-09T11:21:45;11.00;;;1.27;;
33268;SDS011;19640;50.944;5.260;2022-09-09T11:31:44;5.40;;;1.13;;
33268;SDS011;19640;50.944;5.260;2022-09-09T11:40:08;4.22;;;1.23;;
33268;SDS011;19640;50.944;5.260;2022-09-09T11:42:34;3.83;;;1.35;;
33268;SDS011;19640;50.944;5.260;2022-09-09T11:45:15;3.67;;;1.42;;
33268;SDS011;19640;50.944;5.260;2022-09-09T11:47:55;3.72;;;1.10;;
33268;SDS011;19640;50.944;5.260;2022-09-09T11:52:48;6.32;;;1.70;;
33268;SDS011;19640;50.944;5.260;2022-09-09T11:57:57;4.78;;;1.30;;
33268;SDS011;19640;50.944;5.260;2022-09-09T12:00:39;3.90;;;1.45;;
33268;SDS011;19640;50.944;5.260;2022-09-09T12:06:24;4.53;;;1.42;;
33268;SDS011;19640;50.944;5.260;2022-09-09T12:09:05;4.38;;;1.30;;
33268;SDS011;19640;50.944;5.260;2022-09-09T12:11:35;8.95;;;1.38;;
33268;SDS011;19640;50.944;5.260;2022-09-09T12:14:02;6.03;;;1.20;;
33268;SDS011;19640;50.944;5.260;2022-09-09T12:16:29;2.95;;;1.00;;
33268;SDS011;19640;50.944;5.260;2022-09-09T12:19:03;3.88;;;1.13;;
33268;SDS011;19640;50.944;5.260;2022-09-09T12:24:26;9.13;;;1.40;;
33268;SDS011;19640;50.944;5.260;2022-09-09T12:29:26;3.40;;;1.02;;
33268;SDS011;19640;50.944;5.260;2022-09-09T12:32:17;3.92;;;0.95;;
33268;SDS011;19640;50.944;5.260;2022-09-09T12:42:49;5.40;;;0.90;;
33268;SDS011;19640;50.944;5.260;2022-09-09T12:45:16;3.90;;;1.45;;
33268;SDS011;19640;50.944;5.260;2022-09-09T12:50:35;4.05;;;1.02;;
33268;SDS011;19640;50.944;5.260;2022-09-09T12:53:05;7.45;;;1.20;;
33268;SDS011;19640;50.944;5.260;2022-09-09T12:55:35;3.55;;;1.20;;
33268;SDS011;19640;50.944;5.260;2022-09-09T12:58:03;6.50;;;1.08;;
33268;SDS011;19640;50.944;5.260;2022-09-09T13:00:31;4.72;;;1.17;;
33268;SDS011;19640;50.944;5.260;2022-09-09T13:03:02;3.25;;;1.13;;
33268;SDS011;19640;50.944;5.260;2022-09-09T13:05:41;4.50;;;1.08;;
33268;SDS011;19640;50.944;5.260;2022-09-09T13:08:11;3.85;;;0.80;;
33268;SDS011;19640;50.944;5.260;2022-09-09T13:13:21;6.30;;;1.10;;
33268;SDS011;19640;50.944;5.260;2022-09-09T13:18:22;3.75;;;0.60;;
33268;SDS011;19640;50.944;5.260;2022-09-09T13:20:51;2.40;;;0.70;;
33268;SDS011;19640;50.944;5.260;2022-09-09T13:23:18;2.83;;;0.80;;
33268;SDS011;19640;50.944;5.260;2022-09-09T13:25:55;3.65;;;0.70;;
33268;SDS011;19640;50.944;5.260;2022-09-09T13:28:24;2.00;;;0.80;;
33268;SDS011;19640;50.944;5.260;2022-09-09T13:31:36;4.07;;;0.85;;
33268;SDS011;19640;50.944;5.260;2022-09-09T13:33:48;2.70;;;0.77;;
33268;SDS011;19640;50.944;5.260;2022-09-09T13:36:13;3.60;;;1.00;;
33268;SDS011;19640;50.944;5.260;2022-09-09T13:41:23;4.95;;;1.00;;
33268;SDS011;19640;50.944;5.260;2022-09-09T13:44:00;1.60;;;0.77;;
33268;SDS011;19640;50.944;5.260;2022-09-09T13:51:41;2.40;;;0.63;;
33268;SDS011;19640;50.944;5.260;2022-09-09T13:54:15;3.17;;;1.13;;
33268;SDS011;19640;50.944;5.260;2022-09-09T13:56:43;2.92;;;0.88;;
33268;SDS011;19640;50.944;5.260;2022-09-09T13:59:11;1.83;;;0.60;;
33268;SDS011;19640;50.944;5.260;2022-09-09T14:01:38;4.00;;;0.70;;
33268;SDS011;19640;50.944;5.260;2022-09-09T14:04:04;1.63;;;0.50;;
33268;SDS011;19640;50.944;5.260;2022-09-09T14:06:34;1.48;;;0.60;;
33268;SDS011;19640;50.944;5.260;2022-09-09T14:09:03;3.47;;;0.80;;
33268;SDS011;19640;50.944;5.260;2022-09-09T14:11:29;5.28;;;0.80;;
33268;SDS011;19640;50.944;5.260;2022-09-09T14:13:55;3.25;;;0.75;;
33268;SDS011;19640;50.944;5.260;2022-09-09T14:16:21;2.83;;;0.70;;
33268;SDS011;19640;50.944;5.260;2022-09-09T14:18:47;4.10;;;0.90;;
33268;SDS011;19640;50.944;5.260;2022-09-09T14:21:13;3.15;;;0.68;;
33268;SDS011;19640;50.944;5.260;2022-09-09T14:23:40;3.33;;;0.70;;
33268;SDS011;19640;50.944;5.260;2022-09-09T14:26:06;3.70;;;0.73;;
33268;SDS011;19640;50.944;5.260;2022-09-09T14:28:32;2.35;;;0.95;;
33268;SDS011;19640;50.944;5.260;2022-09-09T14:30:59;1.88;;;0.70;;
33268;SDS011;19640;50.944;5.260;2022-09-09T14:33:26;2.65;;;0.70;;
33268;SDS011;19640;50.944;5.260;2022-09-09T14:36:00;3.90;;;0.63;;
33268;SDS011;19640;50.944;5.260;2022-09-09T14:38:32;3.28;;;0.60;;
33268;SDS011;19640;50.944;5.260;2022-09-09T14:40:59;2.88;;;0.77;;
33268;SDS011;19640;50.944;5.260;2022-09-09T14:43:28;2.95;;;0.80;;
33268;SDS011;19640;50.944;5.260;2022-09-09T14:45:55;1.42;;;0.50;;
33268;SDS011;19640;50.944;5.260;2022-09-09T14:48:21;5.00;;;0.90;;
33268;SDS011;19640;50.944;5.260;2022-09-09T14:50:46;1.52;;;0.50;;
33268;SDS011;19640;50.944;5.260;2022-09-09T14:53:12;1.98;;;0.80;;
33268;SDS011;19640;50.944;5.260;2022-09-09T14:55:37;3.45;;;0.90;;
33268;SDS011;19640;50.944;5.260;2022-09-09T14:58:03;2.30;;;0.47;;
33268;SDS011;19640;50.944;5.260;2022-09-09T15:00:30;5.32;;;0.80;;
33268;SDS011;19640;50.944;5.260;2022-09-09T15:02:56;2.90;;;0.80;;
33268;SDS011;19640;50.944;5.260;2022-09-09T15:05:22;3.20;;;0.80;;
33268;SDS011;19640;50.944;5.260;2022-09-09T15:07:49;3.45;;;0.70;;
33268;SDS011;19640;50.944;5.260;2022-09-09T15:10:15;1.60;;;0.60;;
33268;SDS011;19640;50.944;5.260;2022-09-09T15:12:42;2.17;;;0.70;;
33268;SDS011;19640;50.944;5.260;2022-09-09T15:15:08;2.58;;;0.68;;
33268;SDS011;19640;50.944;5.260;2022-09-09T15:17:34;1.23;;;0.38;;
33268;SDS011;19640;50.944;5.260;2022-09-09T15:20:01;4.25;;;0.80;;
33268;SDS011;19640;50.944;5.260;2022-09-09T15:22:33;2.90;;;0.65;;
33268;SDS011;19640;50.944;5.260;2022-09-09T15:24:59;2.05;;;0.70;;
33268;SDS011;19640;50.944;5.260;2022-09-09T15:27:24;2.22;;;0.65;;
33268;SDS011;19640;50.944;5.260;2022-09-09T15:29:50;4.70;;;0.88;;
33268;SDS011;19640;50.944;5.260;2022-09-09T15:32:16;1.55;;;0.60;;
33268;SDS011;19640;50.944;5.260;2022-09-09T15:34:43;1.55;;;0.70;;
33268;SDS011;19640;50.944;5.260;2022-09-09T15:37:12;2.47;;;1.15;;
33268;SDS011;19640;50.944;5.260;2022-09-09T15:39:38;4.20;;;1.20;;
33268;SDS011;19640;50.944;5.260;2022-09-09T15:42:04;3.13;;;0.50;;
33268;SDS011;19640;50.944;5.260;2022-09-09T15:44:38;1.83;;;0.50;;
33268;SDS011;19640;50.944;5.260;2022-09-09T15:49:34;5.65;;;0.73;;
33268;SDS011;19640;50.944;5.260;2022-09-09T15:52:00;2.50;;;0.52;;
33268;SDS011;19640;50.944;5.260;2022-09-09T15:54:32;2.45;;;0.63;;
33268;SDS011;19640;50.944;5.260;2022-09-09T15:57:00;2.85;;;0.70;;
33268;SDS011;19640;50.944;5.260;2022-09-09T15:59:29;2.92;;;1.25;;
33268;SDS011;19640;50.944;5.260;2022-09-09T16:01:56;2.85;;;0.70;;
33268;SDS011;19640;50.944;5.260;2022-09-09T16:04:22;2.70;;;0.60;;
33268;SDS011;19640;50.944;5.260;2022-09-09T16:06:59;2.33;;;0.60;;
33268;SDS011;19640;50.944;5.260;2022-09-09T16:09:29;1.48;;;0.70;;
33268;SDS011;19640;50.944;5.260;2022-09-09T16:11:56;2.10;;;0.70;;
33268;SDS011;19640;50.944;5.260;2022-09-09T16:14:23;2.58;;;0.60;;
33268;SDS011;19640;50.944;5.260;2022-09-09T16:16:50;3.85;;;0.73;;
33268;SDS011;19640;50.944;5.260;2022-09-09T16:19:16;2.28;;;0.70;;
33268;SDS011;19640;50.944;5.260;2022-09-09T16:21:43;2.90;;;0.93;;
33268;SDS011;19640;50.944;5.260;2022-09-09T16:26:42;2.88;;;0.68;;
33268;SDS011;19640;50.944;5.260;2022-09-09T16:29:12;1.60;;;0.73;;
33268;SDS011;19640;50.944;5.260;2022-09-09T16:31:39;2.15;;;0.68;;
33268;SDS011;19640;50.944;5.260;2022-09-09T16:34:06;3.70;;;0.70;;
33268;SDS011;19640;50.944;5.260;2022-09-09T16:36:32;4.25;;;0.80;;
33268;SDS011;19640;50.944;5.260;2022-09-09T16:39:00;2.35;;;0.50;;
33268;SDS011;19640;50.944;5.260;2022-09-09T16:41:28;2.33;;;1.23;;
33268;SDS011;19640;50.944;5.260;2022-09-09T16:44:02;4.50;;;0.70;;
33268;SDS011;19640;50.944;5.260;2022-09-09T16:46:29;1.80;;;0.50;;
33268;SDS011;19640;50.944;5.260;2022-09-09T16:48:58;1.92;;;0.60;;
33268;SDS011;19640;50.944;5.260;2022-09-09T16:51:25;3.08;;;0.65;;
33268;SDS011;19640;50.944;5.260;2022-09-09T16:53:57;1.83;;;0.55;;
33268;SDS011;19640;50.944;5.260;2022-09-09T16:56:24;2.20;;;0.60;;
33268;SDS011;19640;50.944;5.260;2022-09-09T16:58:59;1.25;;;0.60;;
33268;SDS011;19640;50.944;5.260;2022-09-09T17:01:27;1.50;;;0.60;;
33268;SDS011;19640;50.944;5.260;2022-09-09T17:03:56;1.77;;;0.68;;
33268;SDS011;19640;50.944;5.260;2022-09-09T17:06:23;3.60;;;1.33;;
33268;SDS011;19640;50.944;5.260;2022-09-09T17:08:53;4.00;;;1.00;;
33268;SDS011;19640;50.944;5.260;2022-09-09T17:11:20;4.07;;;0.57;;
33268;SDS011;19640;50.944;5.260;2022-09-09T17:13:46;6.38;;;0.70;;
33268;SDS011;19640;50.944;5.260;2022-09-09T17:16:13;3.22;;;0.90;;
33268;SDS011;19640;50.944;5.260;2022-09-09T17:18:40;0.90;;;0.50;;
33268;SDS011;19640;50.944;5.260;2022-09-09T17:21:11;3.47;;;0.70;;
33268;SDS011;19640;50.944;5.260;2022-09-09T17:23:39;2.42;;;0.77;;
33268;SDS011;19640;50.944;5.260;2022-09-09T17:26:06;3.08;;;0.63;;
33268;SDS011;19640;50.944;5.260;2022-09-09T17:28:35;3.90;;;0.60;;
33268;SDS011;19640;50.944;5.260;2022-09-09T17:31:01;4.20;;;0.60;;
33268;SDS011;19640;50.944;5.260;2022-09-09T17:33:31;2.13;;;0.68;;
33268;SDS011;19640;50.944;5.260;2022-09-09T17:35:58;4.05;;;0.75;;
33268;SDS011;19640;50.944;5.260;2022-09-09T17:38:31;2.55;;;0.57;;
33268;SDS011;19640;50.944;5.260;2022-09-09T17:41:40;3.65;;;0.52;;
33268;SDS011;19640;50.944;5.260;2022-09-09T17:43:50;2.72;;;0.68;;
33268;SDS011;19640;50.944;5.260;2022-09-09T17:46:18;2.63;;;0.90;;
33268;SDS011;19640;50.944;5.260;2022-09-09T17:48:49;4.03;;;1.00;;
33268;SDS011;19640;50.944;5.260;2022-09-09T17:51:17;1.95;;;0.70;;